TRLK1: Toronto Lake

Data processed at Fri Jul 29 23:34:28 2016 Central Daylight Time


All information presented herein is the property of the government of the United States of America and may be revised or deleted at any time without prior notice.
Dissemination of this information without the expressed written consent of the Public Affairs Office, Tulsa District U.S. Army Corps of Engineers is strictly prohibited.
These data are gathered electronically and, as presented, have not undergone any form of quality control. These data are not guaranteed to be valid or correct.
Go to home page.
Go to station list.
Go to station map.

Upstream stations:

Downstream station: Previous Day
Next Day
Current Day

Display graphics.
Display DCP transmissions.


    
    SHEF ID:       TRLK1     Toronto Lake
    STATION TYPE:  RESERVOIR
    Flood Control Pool:  Bottom =  901.50, Top =  931.00
    
                   PRECIP ELEVATION   STORAGE    INFLOW   RELEASE  AIR-TEMP  WIND-DIRWIND-SPEED REL-HUMID SOLAR-RAD   VOLTAGE  BAT-LOAD
                   INCHES      FEET      ACFT       CFS       CFS     DEG-F   DEGREES       MPH   PERCENT      W/M2     VOLTS     VOLTS
                     GOES      GOES      GOES  COMPRESQ  COMPRESQ      GOES      GOES      GOES      GOES      GOES      GOES      GOES
       (Cen)
    07/29 01:00      0.00    902.27     18276        82        31     75.61     91.90      2.50     71.84      0.00     13.57     13.37
    07/29 02:00      0.00    902.26     18252       105        31     73.83    143.10      1.30     78.85      0.00     13.57     13.37
    07/29 03:00      0.00    902.28     18299        73        31     71.60    181.30      1.20     88.43      0.00     13.57     13.37
    07/29 04:00      0.00    902.27     18276        79        31     71.76    146.30      1.00     88.25      0.00     13.57     13.37
    07/29 05:00      0.00    902.27     18276        63        31     71.60    142.60      1.80     89.91      0.00     13.57     13.37
    07/29 06:00      0.00    902.28     18299        47        31     70.93    287.60      2.30     91.13      0.00     13.56     13.37
    07/29 07:00      0.00    902.27     18276        31        31     70.43    290.20      2.40     90.73      0.00     13.56     13.37
    07/29 08:00      0.00    902.27     18276        31        31     72.16    118.90      1.80     89.99      0.70     13.56     13.37
    07/29 09:00      0.00    902.28     18299        31        31     70.84    260.60      2.80     91.48     36.60     13.57     13.37
    07/29 10:00      0.00    902.28     18299        89        31     72.68    289.40      2.70     86.09    168.40     13.56     13.37
    07/29 11:00      0.00    902.27     18276        86        31     76.73    123.60      2.00     76.54    411.60     13.56     13.37
    07/29 12:00      0.00    902.28     18299        81        31     80.46    157.50      0.80     65.74    696.40     13.56     13.37
    07/29 13:00      0.00    902.28     18299        74        31     82.83    152.00      0.90     60.03    807.50     13.57     13.21
    07/29 14:00      0.00    902.28     18299        68        31     85.23    131.20      0.90     56.86    844.20     13.57     13.37
    07/29 15:00      0.00    902.26     18252         5        31     86.00    112.60      1.70     56.01    877.20      ----      ----
    07/29 16:00      0.00    902.28     18299         1        31     87.69    114.80      1.50     52.28    792.00     13.57     13.37
    07/29 17:00      0.00    902.26     18252         0        31     88.16    127.30      1.70     51.69    603.00     13.57     13.37
    07/29 18:00      0.00    902.27     18276         1        31     89.24    122.40      1.60     50.43    471.50     13.57     13.37
    07/29 19:00      0.00    902.26     18252         1        31     88.11    108.70      1.80     51.67    254.20     13.57     13.37
    07/29 20:00      0.00    902.26     18252         5        31     85.35     76.60      4.10     59.28     93.00     13.57     13.37
    07/29 21:00      0.00    902.27     18276         5        31     82.69     76.50      4.10     68.23      2.30     13.57     13.37
    07/29 22:00      0.00    902.27     18276        11        31     80.96     75.50      4.00     70.94      0.00     13.57     13.37
    07/29 23:00      0.00    902.27     18276      ----      ----     79.66     68.60      4.10     73.96      0.00     13.57     13.37
    07/30 00:00      ----      ----      ----      ----      ----      ----      ----      ----      ----      ----      ----      ----